sensor_id;sensor_type;location;lat;lon;timestamp;temperature;humidity
27423;DHT22;14878;50.778;0.258;2022-07-24T00:00:52;18.30;99.90
27423;DHT22;14878;50.778;0.258;2022-07-24T00:01:55;18.30;99.90
27423;DHT22;14878;50.778;0.258;2022-07-24T00:02:56;18.30;99.90
27423;DHT22;14878;50.778;0.258;2022-07-24T00:03:56;18.30;99.90
27423;DHT22;14878;50.778;0.258;2022-07-24T00:04:57;18.30;99.90
27423;DHT22;14878;50.778;0.258;2022-07-24T00:06:00;18.30;99.90
27423;DHT22;14878;50.778;0.258;2022-07-24T00:07:01;20.10;99.90
27423;DHT22;14878;50.778;0.258;2022-07-24T00:08:02;18.20;99.90
27423;DHT22;14878;50.778;0.258;2022-07-24T00:09:04;18.20;99.90
27423;DHT22;14878;50.778;0.258;2022-07-24T00:10:06;18.20;99.90
27423;DHT22;14878;50.778;0.258;2022-07-24T00:11:07;18.20;99.90
27423;DHT22;14878;50.778;0.258;2022-07-24T00:12:08;18.20;99.90
27423;DHT22;14878;50.778;0.258;2022-07-24T00:13:09;18.30;99.90
27423;DHT22;14878;50.778;0.258;2022-07-24T00:14:10;18.30;99.90
27423;DHT22;14878;50.778;0.258;2022-07-24T00:15:11;18.30;99.90
27423;DHT22;14878;50.778;0.258;2022-07-24T00:16:12;18.30;99.90
27423;DHT22;14878;50.778;0.258;2022-07-24T00:17:13;18.30;99.90
27423;DHT22;14878;50.778;0.258;2022-07-24T00:18:13;18.30;99.90
27423;DHT22;14878;50.778;0.258;2022-07-24T00:19:15;18.30;99.90
27423;DHT22;14878;50.778;0.258;2022-07-24T00:20:16;18.30;99.90
27423;DHT22;14878;50.778;0.258;2022-07-24T00:21:16;18.30;99.90
27423;DHT22;14878;50.778;0.258;2022-07-24T00:22:17;18.40;99.90
27423;DHT22;14878;50.778;0.258;2022-07-24T00:23:20;18.40;99.90
27423;DHT22;14878;50.778;0.258;2022-07-24T00:24:23;18.30;99.90
27423;DHT22;14878;50.778;0.258;2022-07-24T00:25:23;18.30;99.90
27423;DHT22;14878;50.778;0.258;2022-07-24T00:26:24;18.30;99.90
27423;DHT22;14878;50.778;0.258;2022-07-24T00:27:25;18.30;99.90
27423;DHT22;14878;50.778;0.258;2022-07-24T00:28:26;18.20;99.90
27423;DHT22;14878;50.778;0.258;2022-07-24T00:29:27;18.20;99.90
27423;DHT22;14878;50.778;0.258;2022-07-24T00:30:28;18.20;99.90
27423;DHT22;14878;50.778;0.258;2022-07-24T00:31:29;18.20;99.90
27423;DHT22;14878;50.778;0.258;2022-07-24T00:32:29;18.30;99.90
27423;DHT22;14878;50.778;0.258;2022-07-24T00:33:30;18.30;99.90
27423;DHT22;14878;50.778;0.258;2022-07-24T00:34:31;18.30;99.90
27423;DHT22;14878;50.778;0.258;2022-07-24T00:35:32;18.30;99.90
27423;DHT22;14878;50.778;0.258;2022-07-24T00:36:33;18.30;99.90
27423;DHT22;14878;50.778;0.258;2022-07-24T00:37:34;18.30;99.90
27423;DHT22;14878;50.778;0.258;2022-07-24T00:38:37;18.20;99.90
27423;DHT22;14878;50.778;0.258;2022-07-24T00:39:38;18.20;99.90
27423;DHT22;14878;50.778;0.258;2022-07-24T00:40:39;18.30;99.90
27423;DHT22;14878;50.778;0.258;2022-07-24T00:41:39;18.30;99.90
27423;DHT22;14878;50.778;0.258;2022-07-24T00:42:40;18.30;99.90
27423;DHT22;14878;50.778;0.258;2022-07-24T00:45:02;18.40;99.90
27423;DHT22;14878;50.778;0.258;2022-07-24T00:46:03;18.40;99.90
27423;DHT22;14878;50.778;0.258;2022-07-24T00:47:04;19.30;99.90
27423;DHT22;14878;50.778;0.258;2022-07-24T00:48:05;18.40;99.90
27423;DHT22;14878;50.778;0.258;2022-07-24T00:49:09;18.40;99.90
27423;DHT22;14878;50.778;0.258;2022-07-24T00:50:11;18.30;99.90
27423;DHT22;14878;50.778;0.258;2022-07-24T00:51:15;18.40;99.90
27423;DHT22;14878;50.778;0.258;2022-07-24T00:52:16;18.40;99.90
27423;DHT22;14878;50.778;0.258;2022-07-24T00:53:17;18.30;99.90
27423;DHT22;14878;50.778;0.258;2022-07-24T00:54:19;19.20;99.90
27423;DHT22;14878;50.778;0.258;2022-07-24T00:55:21;18.30;99.90
27423;DHT22;14878;50.778;0.258;2022-07-24T00:56:22;18.30;99.90
27423;DHT22;14878;50.778;0.258;2022-07-24T00:57:23;18.40;99.90
27423;DHT22;14878;50.778;0.258;2022-07-24T00:58:24;18.40;99.90
27423;DHT22;14878;50.778;0.258;2022-07-24T00:59:25;18.40;99.90
27423;DHT22;14878;50.778;0.258;2022-07-24T01:00:26;18.30;99.90
27423;DHT22;14878;50.778;0.258;2022-07-24T01:01:28;18.30;99.90
27423;DHT22;14878;50.778;0.258;2022-07-24T01:02:28;18.20;99.90
27423;DHT22;14878;50.778;0.258;2022-07-24T01:03:29;18.20;99.90
27423;DHT22;14878;50.778;0.258;2022-07-24T01:04:30;18.20;99.90
27423;DHT22;14878;50.778;0.258;2022-07-24T01:05:31;18.20;99.90
27423;DHT22;14878;50.778;0.258;2022-07-24T01:06:32;18.20;99.90
27423;DHT22;14878;50.778;0.258;2022-07-24T01:07:33;18.20;99.90
27423;DHT22;14878;50.778;0.258;2022-07-24T01:08:34;18.20;99.90
27423;DHT22;14878;50.778;0.258;2022-07-24T01:09:35;18.20;99.90
27423;DHT22;14878;50.778;0.258;2022-07-24T01:10:36;18.20;99.90
27423;DHT22;14878;50.778;0.258;2022-07-24T01:11:38;18.20;99.90
27423;DHT22;14878;50.778;0.258;2022-07-24T01:12:40;18.10;99.90
27423;DHT22;14878;50.778;0.258;2022-07-24T01:13:41;18.10;99.90
27423;DHT22;14878;50.778;0.258;2022-07-24T01:14:42;20.20;99.90
27423;DHT22;14878;50.778;0.258;2022-07-24T01:15:46;18.10;99.90
27423;DHT22;14878;50.778;0.258;2022-07-24T01:16:47;18.10;99.90
27423;DHT22;14878;50.778;0.258;2022-07-24T01:17:48;19.10;99.90
27423;DHT22;14878;50.778;0.258;2022-07-24T01:18:49;18.10;99.90
27423;DHT22;14878;50.778;0.258;2022-07-24T01:19:49;18.10;99.90
27423;DHT22;14878;50.778;0.258;2022-07-24T01:20:50;18.10;99.90
27423;DHT22;14878;50.778;0.258;2022-07-24T01:21:53;18.10;99.90
27423;DHT22;14878;50.778;0.258;2022-07-24T01:22:54;18.10;99.90
27423;DHT22;14878;50.778;0.258;2022-07-24T01:23:54;18.10;99.90
27423;DHT22;14878;50.778;0.258;2022-07-24T01:24:56;18.10;99.90
27423;DHT22;14878;50.778;0.258;2022-07-24T01:25:57;18.10;99.90
27423;DHT22;14878;50.778;0.258;2022-07-24T01:26:57;18.10;99.90
27423;DHT22;14878;50.778;0.258;2022-07-24T01:27:58;18.10;99.90
27423;DHT22;14878;50.778;0.258;2022-07-24T01:28:59;18.10;99.90
27423;DHT22;14878;50.778;0.258;2022-07-24T01:30:00;18.00;99.90
27423;DHT22;14878;50.778;0.258;2022-07-24T01:31:01;18.00;99.90
27423;DHT22;14878;50.778;0.258;2022-07-24T01:32:02;18.10;99.90
27423;DHT22;14878;50.778;0.258;2022-07-24T01:33:04;18.10;99.90
27423;DHT22;14878;50.778;0.258;2022-07-24T01:34:05;18.00;99.90
27423;DHT22;14878;50.778;0.258;2022-07-24T01:35:07;18.00;99.90
27423;DHT22;14878;50.778;0.258;2022-07-24T01:36:08;18.00;99.90
27423;DHT22;14878;50.778;0.258;2022-07-24T01:37:09;18.00;99.90
27423;DHT22;14878;50.778;0.258;2022-07-24T01:38:10;18.10;99.90
27423;DHT22;14878;50.778;0.258;2022-07-24T01:39:13;18.10;99.90
27423;DHT22;14878;50.778;0.258;2022-07-24T01:40:14;18.10;99.90
27423;DHT22;14878;50.778;0.258;2022-07-24T01:41:15;18.10;99.90
27423;DHT22;14878;50.778;0.258;2022-07-24T01:42:15;18.10;99.90
27423;DHT22;14878;50.778;0.258;2022-07-24T01:43:16;18.10;99.90
27423;DHT22;14878;50.778;0.258;2022-07-24T01:44:17;18.00;99.90
27423;DHT22;14878;50.778;0.258;2022-07-24T01:45:18;18.00;99.90
27423;DHT22;14878;50.778;0.258;2022-07-24T01:46:19;18.00;99.90
27423;DHT22;14878;50.778;0.258;2022-07-24T01:47:20;18.00;99.90
27423;DHT22;14878;50.778;0.258;2022-07-24T01:48:20;18.00;99.90
27423;DHT22;14878;50.778;0.258;2022-07-24T01:49:21;18.00;99.90
27423;DHT22;14878;50.778;0.258;2022-07-24T01:50:22;18.00;99.90
27423;DHT22;14878;50.778;0.258;2022-07-24T01:51:23;18.00;99.90
27423;DHT22;14878;50.778;0.258;2022-07-24T01:52:23;18.00;99.90
27423;DHT22;14878;50.778;0.258;2022-07-24T01:53:26;17.90;99.90
27423;DHT22;14878;50.778;0.258;2022-07-24T01:54:30;17.90;99.90
27423;DHT22;14878;50.778;0.258;2022-07-24T01:55:30;17.90;99.90
27423;DHT22;14878;50.778;0.258;2022-07-24T01:56:32;17.90;99.90
27423;DHT22;14878;50.778;0.258;2022-07-24T01:57:33;18.00;99.90
27423;DHT22;14878;50.778;0.258;2022-07-24T01:58:34;17.90;99.90
27423;DHT22;14878;50.778;0.258;2022-07-24T01:59:35;18.00;99.90
27423;DHT22;14878;50.778;0.258;2022-07-24T02:00:35;18.00;99.90
27423;DHT22;14878;50.778;0.258;2022-07-24T02:01:36;18.00;99.90
27423;DHT22;14878;50.778;0.258;2022-07-24T02:02:37;18.00;99.90
27423;DHT22;14878;50.778;0.258;2022-07-24T02:03:38;18.00;99.90
27423;DHT22;14878;50.778;0.258;2022-07-24T02:04:39;18.00;99.90
27423;DHT22;14878;50.778;0.258;2022-07-24T02:05:40;18.00;99.90
27423;DHT22;14878;50.778;0.258;2022-07-24T02:06:41;18.00;99.90
27423;DHT22;14878;50.778;0.258;2022-07-24T02:07:43;18.00;99.90
27423;DHT22;14878;50.778;0.258;2022-07-24T02:08:44;18.00;99.90
27423;DHT22;14878;50.778;0.258;2022-07-24T02:09:45;18.00;99.90
27423;DHT22;14878;50.778;0.258;2022-07-24T02:10:46;18.00;99.90
27423;DHT22;14878;50.778;0.258;2022-07-24T02:11:46;18.00;99.90
27423;DHT22;14878;50.778;0.258;2022-07-24T02:13:23;18.10;99.90
27423;DHT22;14878;50.778;0.258;2022-07-24T02:14:26;18.00;99.90
27423;DHT22;14878;50.778;0.258;2022-07-24T02:15:27;18.00;99.90
27423;DHT22;14878;50.778;0.258;2022-07-24T02:16:28;18.00;99.90
27423;DHT22;14878;50.778;0.258;2022-07-24T02:17:29;18.00;99.90
27423;DHT22;14878;50.778;0.258;2022-07-24T02:18:30;17.90;99.90
27423;DHT22;14878;50.778;0.258;2022-07-24T02:19:30;18.00;99.90
27423;DHT22;14878;50.778;0.258;2022-07-24T02:20:32;18.00;99.90
27423;DHT22;14878;50.778;0.258;2022-07-24T02:21:32;18.00;99.90
27423;DHT22;14878;50.778;0.258;2022-07-24T02:22:33;17.90;99.90
27423;DHT22;14878;50.778;0.258;2022-07-24T02:23:34;17.90;99.90
27423;DHT22;14878;50.778;0.258;2022-07-24T02:24:35;17.90;99.90
27423;DHT22;14878;50.778;0.258;2022-07-24T02:25:36;17.80;99.90
27423;DHT22;14878;50.778;0.258;2022-07-24T02:26:37;17.80;99.90
27423;DHT22;14878;50.778;0.258;2022-07-24T02:27:38;17.80;99.90
27423;DHT22;14878;50.778;0.258;2022-07-24T02:28:38;17.80;99.90
27423;DHT22;14878;50.778;0.258;2022-07-24T02:29:39;17.80;99.90
27423;DHT22;14878;50.778;0.258;2022-07-24T02:30:40;18.10;99.90
27423;DHT22;14878;50.778;0.258;2022-07-24T02:31:41;17.80;99.90
27423;DHT22;14878;50.778;0.258;2022-07-24T02:32:42;17.80;99.90
27423;DHT22;14878;50.778;0.258;2022-07-24T02:33:43;17.80;99.90
27423;DHT22;14878;50.778;0.258;2022-07-24T02:34:44;17.70;99.90
27423;DHT22;14878;50.778;0.258;2022-07-24T02:35:45;17.70;99.90
27423;DHT22;14878;50.778;0.258;2022-07-24T02:36:45;17.70;99.90
27423;DHT22;14878;50.778;0.258;2022-07-24T02:37:46;17.70;99.90
27423;DHT22;14878;50.778;0.258;2022-07-24T02:38:47;17.70;99.90
27423;DHT22;14878;50.778;0.258;2022-07-24T02:39:48;17.80;99.90
27423;DHT22;14878;50.778;0.258;2022-07-24T02:40:49;17.80;99.90
27423;DHT22;14878;50.778;0.258;2022-07-24T02:41:49;17.80;99.90
27423;DHT22;14878;50.778;0.258;2022-07-24T02:42:50;17.80;99.90
27423;DHT22;14878;50.778;0.258;2022-07-24T02:43:51;17.80;99.90
27423;DHT22;14878;50.778;0.258;2022-07-24T02:44:52;17.70;99.90
27423;DHT22;14878;50.778;0.258;2022-07-24T02:45:52;17.70;99.90
27423;DHT22;14878;50.778;0.258;2022-07-24T02:46:53;17.70;99.90
27423;DHT22;14878;50.778;0.258;2022-07-24T02:47:55;17.70;99.90
27423;DHT22;14878;50.778;0.258;2022-07-24T02:48:56;17.70;99.90
27423;DHT22;14878;50.778;0.258;2022-07-24T02:49:57;16.10;99.90
27423;DHT22;14878;50.778;0.258;2022-07-24T02:50:59;17.70;99.90
27423;DHT22;14878;50.778;0.258;2022-07-24T02:52:00;17.70;99.90
27423;DHT22;14878;50.778;0.258;2022-07-24T02:53:01;17.70;99.90
27423;DHT22;14878;50.778;0.258;2022-07-24T02:54:02;17.70;99.90
27423;DHT22;14878;50.778;0.258;2022-07-24T02:55:03;17.80;99.90
27423;DHT22;14878;50.778;0.258;2022-07-24T02:56:04;17.70;99.90
27423;DHT22;14878;50.778;0.258;2022-07-24T02:57:05;17.70;99.90
27423;DHT22;14878;50.778;0.258;2022-07-24T02:58:06;17.70;99.90
27423;DHT22;14878;50.778;0.258;2022-07-24T02:59:07;17.70;99.90
27423;DHT22;14878;50.778;0.258;2022-07-24T03:00:10;17.70;99.90
27423;DHT22;14878;50.778;0.258;2022-07-24T03:01:12;17.70;99.90
27423;DHT22;14878;50.778;0.258;2022-07-24T03:02:12;17.80;99.90
27423;DHT22;14878;50.778;0.258;2022-07-24T03:03:13;17.80;99.90
27423;DHT22;14878;50.778;0.258;2022-07-24T03:04:14;17.80;99.90
27423;DHT22;14878;50.778;0.258;2022-07-24T03:05:15;17.80;99.90
27423;DHT22;14878;50.778;0.258;2022-07-24T03:06:15;17.80;99.90
27423;DHT22;14878;50.778;0.258;2022-07-24T03:07:16;17.70;99.90
27423;DHT22;14878;50.778;0.258;2022-07-24T03:08:17;17.70;99.90
27423;DHT22;14878;50.778;0.258;2022-07-24T03:09:18;17.70;99.90
27423;DHT22;14878;50.778;0.258;2022-07-24T03:10:19;17.70;99.90
27423;DHT22;14878;50.778;0.258;2022-07-24T03:11:20;17.70;99.90
27423;DHT22;14878;50.778;0.258;2022-07-24T03:12:21;17.70;99.90
27423;DHT22;14878;50.778;0.258;2022-07-24T03:13:22;17.70;99.90
27423;DHT22;14878;50.778;0.258;2022-07-24T03:14:23;17.70;99.90
27423;DHT22;14878;50.778;0.258;2022-07-24T03:15:24;17.70;99.90
27423;DHT22;14878;50.778;0.258;2022-07-24T03:16:25;17.70;99.90
27423;DHT22;14878;50.778;0.258;2022-07-24T03:17:25;17.60;99.90
27423;DHT22;14878;50.778;0.258;2022-07-24T03:18:26;17.70;99.90
27423;DHT22;14878;50.778;0.258;2022-07-24T03:19:27;17.70;99.90
27423;DHT22;14878;50.778;0.258;2022-07-24T03:20:28;17.70;99.90
27423;DHT22;14878;50.778;0.258;2022-07-24T03:21:29;17.70;99.90
27423;DHT22;14878;50.778;0.258;2022-07-24T03:22:30;17.70;99.90
27423;DHT22;14878;50.778;0.258;2022-07-24T03:23:31;17.70;99.90
27423;DHT22;14878;50.778;0.258;2022-07-24T03:24:31;17.70;99.90
27423;DHT22;14878;50.778;0.258;2022-07-24T03:25:32;17.60;99.90
27423;DHT22;14878;50.778;0.258;2022-07-24T03:26:33;17.60;99.90
27423;DHT22;14878;50.778;0.258;2022-07-24T03:27:34;17.70;99.90
27423;DHT22;14878;50.778;0.258;2022-07-24T03:28:35;17.70;99.90
27423;DHT22;14878;50.778;0.258;2022-07-24T03:29:36;17.70;99.90
27423;DHT22;14878;50.778;0.258;2022-07-24T03:30:37;17.70;99.90
27423;DHT22;14878;50.778;0.258;2022-07-24T03:31:37;17.70;99.90
27423;DHT22;14878;50.778;0.258;2022-07-24T03:32:38;17.70;99.90
27423;DHT22;14878;50.778;0.258;2022-07-24T03:33:39;17.70;99.90
27423;DHT22;14878;50.778;0.258;2022-07-24T03:34:40;17.70;99.90
27423;DHT22;14878;50.778;0.258;2022-07-24T03:35:40;17.80;99.90
27423;DHT22;14878;50.778;0.258;2022-07-24T03:36:41;17.70;99.90
27423;DHT22;14878;50.778;0.258;2022-07-24T03:37:42;17.70;99.90
27423;DHT22;14878;50.778;0.258;2022-07-24T03:38:43;17.70;99.90
27423;DHT22;14878;50.778;0.258;2022-07-24T03:39:45;17.80;99.90
27423;DHT22;14878;50.778;0.258;2022-07-24T03:40:47;17.80;99.90
27423;DHT22;14878;50.778;0.258;2022-07-24T03:41:48;17.70;99.90
27423;DHT22;14878;50.778;0.258;2022-07-24T03:42:48;17.70;99.90
27423;DHT22;14878;50.778;0.258;2022-07-24T03:43:49;17.70;99.90
27423;DHT22;14878;50.778;0.258;2022-07-24T03:44:50;17.70;99.90
27423;DHT22;14878;50.778;0.258;2022-07-24T03:45:51;17.60;99.90
27423;DHT22;14878;50.778;0.258;2022-07-24T03:46:51;17.70;99.90
27423;DHT22;14878;50.778;0.258;2022-07-24T03:47:52;17.70;99.90
27423;DHT22;14878;50.778;0.258;2022-07-24T03:48:53;17.70;99.90
27423;DHT22;14878;50.778;0.258;2022-07-24T03:49:54;17.70;99.90
27423;DHT22;14878;50.778;0.258;2022-07-24T03:50:54;17.70;99.90
27423;DHT22;14878;50.778;0.258;2022-07-24T03:51:55;17.60;99.90
27423;DHT22;14878;50.778;0.258;2022-07-24T03:52:56;17.60;99.90
27423;DHT22;14878;50.778;0.258;2022-07-24T03:53:57;17.60;99.90
27423;DHT22;14878;50.778;0.258;2022-07-24T03:54:57;17.70;99.90
27423;DHT22;14878;50.778;0.258;2022-07-24T03:55:59;17.60;99.90
27423;DHT22;14878;50.778;0.258;2022-07-24T03:56:59;17.70;99.90
27423;DHT22;14878;50.778;0.258;2022-07-24T03:58:00;17.70;99.90
27423;DHT22;14878;50.778;0.258;2022-07-24T03:59:04;17.70;99.90
27423;DHT22;14878;50.778;0.258;2022-07-24T04:00:06;17.70;99.90
27423;DHT22;14878;50.778;0.258;2022-07-24T04:01:08;17.70;99.90
27423;DHT22;14878;50.778;0.258;2022-07-24T04:02:08;17.70;99.90
27423;DHT22;14878;50.778;0.258;2022-07-24T04:03:09;17.80;99.90
27423;DHT22;14878;50.778;0.258;2022-07-24T04:04:10;17.80;99.90
27423;DHT22;14878;50.778;0.258;2022-07-24T04:05:11;17.80;99.90
27423;DHT22;14878;50.778;0.258;2022-07-24T04:06:13;17.70;99.90
27423;DHT22;14878;50.778;0.258;2022-07-24T04:07:14;17.70;99.90
27423;DHT22;14878;50.778;0.258;2022-07-24T04:08:15;17.70;99.90
27423;DHT22;14878;50.778;0.258;2022-07-24T04:09:16;17.70;99.90
27423;DHT22;14878;50.778;0.258;2022-07-24T04:10:17;17.60;99.90
27423;DHT22;14878;50.778;0.258;2022-07-24T04:11:17;17.60;99.90
27423;DHT22;14878;50.778;0.258;2022-07-24T04:12:18;17.60;99.90
27423;DHT22;14878;50.778;0.258;2022-07-24T04:13:19;17.60;99.90
27423;DHT22;14878;50.778;0.258;2022-07-24T04:14:20;17.60;99.90
27423;DHT22;14878;50.778;0.258;2022-07-24T04:15:20;17.50;99.90
27423;DHT22;14878;50.778;0.258;2022-07-24T04:16:21;17.60;99.90
27423;DHT22;14878;50.778;0.258;2022-07-24T04:17:22;17.60;99.90
27423;DHT22;14878;50.778;0.258;2022-07-24T04:18:23;17.60;99.90
27423;DHT22;14878;50.778;0.258;2022-07-24T04:19:24;17.60;99.90
27423;DHT22;14878;50.778;0.258;2022-07-24T04:20:25;17.60;99.90
27423;DHT22;14878;50.778;0.258;2022-07-24T04:21:25;17.60;99.90
27423;DHT22;14878;50.778;0.258;2022-07-24T04:22:26;17.50;99.90
27423;DHT22;14878;50.778;0.258;2022-07-24T04:23:28;17.50;99.90
27423;DHT22;14878;50.778;0.258;2022-07-24T04:24:28;17.60;99.90
27423;DHT22;14878;50.778;0.258;2022-07-24T04:25:29;17.60;99.90
27423;DHT22;14878;50.778;0.258;2022-07-24T04:26:30;17.70;99.90
27423;DHT22;14878;50.778;0.258;2022-07-24T04:27:31;17.60;99.90
27423;DHT22;14878;50.778;0.258;2022-07-24T04:28:32;17.60;99.90
27423;DHT22;14878;50.778;0.258;2022-07-24T04:29:32;17.70;99.90
27423;DHT22;14878;50.778;0.258;2022-07-24T04:30:33;17.60;99.90
27423;DHT22;14878;50.778;0.258;2022-07-24T04:31:34;17.60;99.90
27423;DHT22;14878;50.778;0.258;2022-07-24T04:32:35;17.60;99.90
27423;DHT22;14878;50.778;0.258;2022-07-24T04:33:36;17.60;99.90
27423;DHT22;14878;50.778;0.258;2022-07-24T04:34:37;17.60;99.90
27423;DHT22;14878;50.778;0.258;2022-07-24T04:35:37;17.60;99.90
27423;DHT22;14878;50.778;0.258;2022-07-24T04:36:38;17.60;99.90
27423;DHT22;14878;50.778;0.258;2022-07-24T04:37:39;17.70;99.90
27423;DHT22;14878;50.778;0.258;2022-07-24T04:38:40;17.70;99.90
27423;DHT22;14878;50.778;0.258;2022-07-24T04:39:41;17.70;99.90
27423;DHT22;14878;50.778;0.258;2022-07-24T04:40:42;17.70;99.90
27423;DHT22;14878;50.778;0.258;2022-07-24T04:41:43;17.70;99.90
27423;DHT22;14878;50.778;0.258;2022-07-24T04:42:44;19.40;99.90
27423;DHT22;14878;50.778;0.258;2022-07-24T04:43:48;17.70;99.90
27423;DHT22;14878;50.778;0.258;2022-07-24T04:44:50;17.70;99.90
27423;DHT22;14878;50.778;0.258;2022-07-24T04:45:50;17.70;99.90
27423;DHT22;14878;50.778;0.258;2022-07-24T04:46:51;17.70;99.90
27423;DHT22;14878;50.778;0.258;2022-07-24T04:47:52;17.80;99.90
27423;DHT22;14878;50.778;0.258;2022-07-24T04:48:53;17.80;99.90
27423;DHT22;14878;50.778;0.258;2022-07-24T04:49:53;17.80;99.90
27423;DHT22;14878;50.778;0.258;2022-07-24T04:50:54;17.80;99.90
27423;DHT22;14878;50.778;0.258;2022-07-24T04:51:55;17.90;99.90
27423;DHT22;14878;50.778;0.258;2022-07-24T04:52:56;17.90;99.90
27423;DHT22;14878;50.778;0.258;2022-07-24T04:53:56;17.90;99.90
27423;DHT22;14878;50.778;0.258;2022-07-24T04:54:58;17.90;99.90
27423;DHT22;14878;50.778;0.258;2022-07-24T04:55:59;17.90;99.90
27423;DHT22;14878;50.778;0.258;2022-07-24T04:57:00;18.00;99.90
27423;DHT22;14878;50.778;0.258;2022-07-24T04:58:00;17.90;99.90
27423;DHT22;14878;50.778;0.258;2022-07-24T04:59:01;18.00;99.90
27423;DHT22;14878;50.778;0.258;2022-07-24T05:00:07;18.00;99.90
27423;DHT22;14878;50.778;0.258;2022-07-24T05:01:08;18.00;99.90
27423;DHT22;14878;50.778;0.258;2022-07-24T05:02:09;18.10;99.90
27423;DHT22;14878;50.778;0.258;2022-07-24T05:03:09;18.10;99.90
27423;DHT22;14878;50.778;0.258;2022-07-24T05:04:10;18.00;99.90
27423;DHT22;14878;50.778;0.258;2022-07-24T05:05:11;18.00;99.90
27423;DHT22;14878;50.778;0.258;2022-07-24T05:06:12;18.10;99.90
27423;DHT22;14878;50.778;0.258;2022-07-24T05:07:15;18.00;99.90
27423;DHT22;14878;50.778;0.258;2022-07-24T05:08:16;18.10;99.90
27423;DHT22;14878;50.778;0.258;2022-07-24T05:09:17;18.10;99.90
27423;DHT22;14878;50.778;0.258;2022-07-24T05:10:17;18.10;99.90
27423;DHT22;14878;50.778;0.258;2022-07-24T05:11:18;18.10;99.90
27423;DHT22;14878;50.778;0.258;2022-07-24T05:12:19;18.10;99.90
27423;DHT22;14878;50.778;0.258;2022-07-24T05:13:20;18.10;99.90
27423;DHT22;14878;50.778;0.258;2022-07-24T05:14:21;18.10;99.90
27423;DHT22;14878;50.778;0.258;2022-07-24T05:15:22;18.10;99.90
27423;DHT22;14878;50.778;0.258;2022-07-24T05:16:23;18.10;99.90
27423;DHT22;14878;50.778;0.258;2022-07-24T05:17:23;18.10;99.90
27423;DHT22;14878;50.778;0.258;2022-07-24T05:18:24;18.10;99.90
27423;DHT22;14878;50.778;0.258;2022-07-24T05:19:25;18.10;99.90
27423;DHT22;14878;50.778;0.258;2022-07-24T05:20:26;18.10;99.90
27423;DHT22;14878;50.778;0.258;2022-07-24T05:21:27;18.20;99.90
27423;DHT22;14878;50.778;0.258;2022-07-24T05:22:28;18.20;99.90
27423;DHT22;14878;50.778;0.258;2022-07-24T05:23:29;18.20;99.90
27423;DHT22;14878;50.778;0.258;2022-07-24T05:24:29;18.30;99.90
27423;DHT22;14878;50.778;0.258;2022-07-24T05:25:30;18.40;99.90
27423;DHT22;14878;50.778;0.258;2022-07-24T05:26:31;18.40;99.90
27423;DHT22;14878;50.778;0.258;2022-07-24T05:27:32;18.40;99.90
27423;DHT22;14878;50.778;0.258;2022-07-24T05:28:33;18.40;99.90
27423;DHT22;14878;50.778;0.258;2022-07-24T05:29:33;18.50;99.90
27423;DHT22;14878;50.778;0.258;2022-07-24T05:30:34;18.60;99.90
27423;DHT22;14878;50.778;0.258;2022-07-24T05:31:35;18.60;99.90
27423;DHT22;14878;50.778;0.258;2022-07-24T05:32:36;18.70;99.90
27423;DHT22;14878;50.778;0.258;2022-07-24T05:33:37;18.80;99.90
27423;DHT22;14878;50.778;0.258;2022-07-24T05:34:37;18.90;99.90
27423;DHT22;14878;50.778;0.258;2022-07-24T05:35:38;19.00;99.90
27423;DHT22;14878;50.778;0.258;2022-07-24T05:36:39;19.00;99.90
27423;DHT22;14878;50.778;0.258;2022-07-24T05:37:40;19.10;99.90
27423;DHT22;14878;50.778;0.258;2022-07-24T05:38:41;16.80;99.90
27423;DHT22;14878;50.778;0.258;2022-07-24T05:39:42;19.20;99.90
27423;DHT22;14878;50.778;0.258;2022-07-24T05:40:50;19.30;99.90
27423;DHT22;14878;50.778;0.258;2022-07-24T05:41:50;19.30;99.90
27423;DHT22;14878;50.778;0.258;2022-07-24T05:42:51;19.40;99.90
27423;DHT22;14878;50.778;0.258;2022-07-24T05:43:52;19.40;99.90
27423;DHT22;14878;50.778;0.258;2022-07-24T05:44:54;19.50;99.90
27423;DHT22;14878;50.778;0.258;2022-07-24T05:45:55;19.70;99.90
27423;DHT22;14878;50.778;0.258;2022-07-24T05:46:59;19.70;99.90
27423;DHT22;14878;50.778;0.258;2022-07-24T05:48:00;19.80;99.90
27423;DHT22;14878;50.778;0.258;2022-07-24T05:49:01;19.90;99.90
27423;DHT22;14878;50.778;0.258;2022-07-24T05:50:02;19.90;99.90
27423;DHT22;14878;50.778;0.258;2022-07-24T05:51:03;20.10;99.90
27423;DHT22;14878;50.778;0.258;2022-07-24T05:52:04;20.10;99.90
27423;DHT22;14878;50.778;0.258;2022-07-24T05:53:05;19.90;99.90
27423;DHT22;14878;50.778;0.258;2022-07-24T05:54:06;19.90;99.90
27423;DHT22;14878;50.778;0.258;2022-07-24T05:55:07;19.80;99.90
27423;DHT22;14878;50.778;0.258;2022-07-24T05:56:08;19.90;99.90
27423;DHT22;14878;50.778;0.258;2022-07-24T05:57:09;20.10;99.90
27423;DHT22;14878;50.778;0.258;2022-07-24T05:58:10;20.20;99.90
27423;DHT22;14878;50.778;0.258;2022-07-24T05:59:11;20.30;99.90
27423;DHT22;14878;50.778;0.258;2022-07-24T06:00:13;20.50;99.90
27423;DHT22;14878;50.778;0.258;2022-07-24T06:01:15;20.50;99.90
27423;DHT22;14878;50.778;0.258;2022-07-24T06:02:15;20.50;99.90
27423;DHT22;14878;50.778;0.258;2022-07-24T06:03:16;20.60;99.90
27423;DHT22;14878;50.778;0.258;2022-07-24T06:04:17;20.80;99.90
27423;DHT22;14878;50.778;0.258;2022-07-24T06:05:18;20.80;99.90
27423;DHT22;14878;50.778;0.258;2022-07-24T06:06:19;20.60;99.90
27423;DHT22;14878;50.778;0.258;2022-07-24T06:07:38;20.50;99.90
27423;DHT22;14878;50.778;0.258;2022-07-24T06:08:39;20.70;99.90
27423;DHT22;14878;50.778;0.258;2022-07-24T06:09:40;20.70;99.90
27423;DHT22;14878;50.778;0.258;2022-07-24T06:10:41;20.60;99.90
27423;DHT22;14878;50.778;0.258;2022-07-24T06:11:42;20.50;99.90
27423;DHT22;14878;50.778;0.258;2022-07-24T06:12:43;20.50;99.90
27423;DHT22;14878;50.778;0.258;2022-07-24T06:13:43;20.40;99.90
27423;DHT22;14878;50.778;0.258;2022-07-24T06:14:44;20.50;99.90
27423;DHT22;14878;50.778;0.258;2022-07-24T06:15:45;20.60;99.90
27423;DHT22;14878;50.778;0.258;2022-07-24T06:16:46;20.60;99.90
27423;DHT22;14878;50.778;0.258;2022-07-24T06:17:50;20.50;99.90
27423;DHT22;14878;50.778;0.258;2022-07-24T06:18:50;20.50;99.90
27423;DHT22;14878;50.778;0.258;2022-07-24T06:19:51;20.50;99.90
27423;DHT22;14878;50.778;0.258;2022-07-24T06:20:52;20.50;99.90
27423;DHT22;14878;50.778;0.258;2022-07-24T06:21:52;20.50;99.90
27423;DHT22;14878;50.778;0.258;2022-07-24T06:22:53;20.30;99.90
27423;DHT22;14878;50.778;0.258;2022-07-24T06:23:54;20.30;99.90
27423;DHT22;14878;50.778;0.258;2022-07-24T06:24:55;20.20;99.90
27423;DHT22;14878;50.778;0.258;2022-07-24T06:25:56;20.20;99.90
27423;DHT22;14878;50.778;0.258;2022-07-24T06:26:56;20.30;99.90
27423;DHT22;14878;50.778;0.258;2022-07-24T06:27:57;20.30;99.90